Time;durP1;ratioP1;P1;durP2;ratioP2;P2;SDS_P1;SDS_P2;PMS_P1;PMS_P2;Temp;Humidity;BMP_temperature;BMP_pressure;BME280_temperature;BME280_humidity;BME280_pressure;Samples;Min_cycle;Max_cycle;Signal;HPM_P1;HPM_P2
2022/03/02 00:02:20;;;;;;;15.98;8.82;;;0.10;58.40;;;-1.31;42.70;95796.34;6153769;23;20201;-82
2022/03/02 00:04:47;;;;;;;14.98;8.60;;;0.20;58.50;;;-1.25;43.05;95802.84;6129393;23;20229;-83
2022/03/02 00:07:14;;;;;;;14.80;8.27;;;0.20;58.50;;;-1.27;43.02;95799.53;6105796;23;20205;-83
2022/03/02 00:09:42;;;;;;;13.98;8.07;;;0.10;58.40;;;-1.26;43.04;95794.28;6129695;23;20201;-83
2022/03/02 00:12:10;;;;;;;16.15;9.02;;;0.10;58.40;;;-1.26;43.01;95808.91;6105874;23;20184;-81
2022/03/02 00:14:37;;;;;;;15.05;8.80;;;0.10;58.40;;;-1.26;42.97;95801.19;6129646;23;20205;-82
2022/03/02 00:17:05;;;;;;;17.80;8.50;;;0.10;58.40;;;-1.30;42.90;95798.81;6130404;23;20672;-81
2022/03/02 00:19:33;;;;;;;15.70;7.97;;;0.10;58.40;;;-1.30;43.07;95798.00;6154379;23;20220;-82
2022/03/02 00:22:01;;;;;;;16.08;7.95;;;0.10;58.40;;;-1.34;42.90;95805.06;6130258;23;20174;-83
2022/03/02 00:24:29;;;;;;;12.93;7.57;;;0.10;58.30;;;-1.40;42.78;95799.47;6153726;23;20188;-82
2022/03/02 00:26:57;;;;;;;12.13;7.85;;;0.10;58.50;;;-1.46;43.03;95796.38;6154270;23;20205;-83
2022/03/02 00:29:26;;;;;;;14.45;7.60;;;0.00;58.30;;;-1.54;43.03;95787.47;6106087;23;20201;-82
2022/03/02 00:31:53;;;;;;;12.80;7.65;;;0.00;58.30;;;-1.62;42.72;95791.34;6104561;23;20188;-82
2022/03/02 00:34:21;;;;;;;13.88;8.00;;;-0.10;59.30;;;-1.67;42.77;95789.97;6129936;23;20216;-83
2022/03/02 00:36:48;;;;;;;13.45;8.20;;;-0.10;58.10;;;-1.77;42.92;95788.00;6129496;23;20165;-82
2022/03/02 00:39:15;;;;;;;15.32;8.27;;;-0.20;58.20;;;-1.82;43.02;95782.31;6129615;23;20198;-82
2022/03/02 00:41:42;;;;;;;14.13;7.80;;;-0.20;58.20;;;-1.88;43.09;95776.69;6129773;23;20176;-82
2022/03/02 00:44:10;;;;;;;13.57;6.78;;;-0.30;58.30;;;-1.92;43.01;95782.97;6153804;23;20288;-83
2022/03/02 00:46:38;;;;;;;12.85;7.70;;;-0.30;58.40;;;-2.03;43.01;95784.44;6129706;23;20173;-82
2022/03/02 00:49:06;;;;;;;16.38;7.95;;;-0.40;58.50;;;-2.05;43.19;95790.56;6129730;23;20539;-83
2022/03/02 00:51:33;;;;;;;15.13;8.10;;;-0.40;58.50;;;-2.12;42.91;95788.38;6153853;23;20272;-82
2022/03/02 00:54:00;;;;;;;14.07;7.80;;;-0.50;58.50;;;-2.17;43.29;95787.84;6129802;23;20193;-82
2022/03/02 00:56:28;;;;;;;13.35;8.02;;;-0.50;58.70;;;-2.21;43.92;95788.94;6129302;23;20173;-82
2022/03/02 00:58:55;;;;;;;15.75;8.63;;;-0.60;58.80;;;-2.23;43.55;95774.50;6154294;23;20197;-82
2022/03/02 01:01:22;;;;;;;14.90;7.57;;;-0.60;58.80;;;-2.24;43.56;95776.28;6154167;23;20165;-83
2022/03/02 01:03:49;;;;;;;12.77;7.57;;;-0.70;60.00;;;-2.28;43.74;95772.25;6128222;23;20603;-84
2022/03/02 01:06:17;;;;;;;14.43;7.28;;;-0.70;58.90;;;-2.31;43.43;95770.66;6153517;23;20620;-83
2022/03/02 01:08:46;;;;;;;12.30;7.22;;;-0.80;58.90;;;-2.34;43.50;95767.47;6105450;23;20213;-84
2022/03/02 01:11:13;;;;;;;11.52;7.20;;;-0.80;58.90;;;-2.46;43.38;95763.88;6104544;23;20173;-83
2022/03/02 01:13:40;;;;;;;14.40;7.90;;;-0.80;59.00;;;-2.44;43.60;95772.28;6154120;23;20593;-83
2022/03/02 01:16:15;;;;;;;15.90;7.65;;;-0.80;59.00;;;-2.50;43.60;95773.50;5143500;27;20952;-82
2022/03/02 01:18:43;;;;;;;14.07;7.40;;;-0.90;59.00;;;-2.55;43.76;95770.38;5072199;28;20224;-83
2022/03/02 01:21:11;;;;;;;12.07;6.95;;;-0.90;59.00;;;-2.60;43.65;95768.09;5072180;28;20293;-82
2022/03/02 01:23:38;;;;;;;11.68;7.60;;;-1.00;59.00;;;-2.63;43.65;95755.41;5056090;28;20222;-83
2022/03/02 01:26:05;;;;;;;12.70;7.78;;;-1.00;59.10;;;-2.68;43.70;95747.16;5071055;28;20289;-82
2022/03/02 01:28:32;;;;;;;14.45;7.80;;;-1.10;59.00;;;-2.69;43.65;95754.94;5054887;28;20268;-83
2022/03/02 01:30:59;;;;;;;12.90;7.40;;;-1.10;59.10;;;-2.76;43.60;95733.94;5072315;28;20191;-83
2022/03/02 01:33:27;;;;;;;11.95;6.95;;;-1.20;59.00;;;-2.81;43.55;95739.31;5071840;28;20233;-83
2022/03/02 01:35:54;;;;;;;11.90;7.18;;;-1.20;59.10;;;-2.84;43.68;95725.88;5088878;28;20236;-84
2022/03/02 01:38:21;;;;;;;13.70;7.95;;;-1.20;59.20;;;-2.84;44.02;95731.00;5080593;28;20293;-83
2022/03/02 01:40:49;;;;;;;17.10;8.07;;;-1.30;59.30;;;-2.84;44.26;95723.31;5071958;28;20199;-82
2022/03/02 01:43:16;;;;;;;14.73;8.15;;;-1.30;59.70;;;-2.81;44.36;95725.69;5055233;28;20222;-83
2022/03/02 01:45:43;;;;;;;12.68;7.38;;;-1.30;60.00;;;-2.79;44.42;95726.41;5070795;28;20286;-83
2022/03/02 01:48:10;;;;;;;12.13;6.65;;;-1.30;60.00;;;-2.81;44.37;95720.53;5071269;28;20297;-83
2022/03/02 01:50:37;;;;;;;11.52;6.65;;;-1.30;60.00;;;-2.83;44.32;95718.06;5055403;28;20664;-83
2022/03/02 01:53:05;;;;;;;14.82;7.88;;;-1.30;59.90;;;-2.88;44.10;95716.69;5068316;28;20223;-82
2022/03/02 01:55:32;;;;;;;13.85;7.55;;;-1.30;60.00;;;-2.86;44.38;95722.56;5065787;28;20223;-84
2022/03/02 01:57:59;;;;;;;15.15;7.43;;;-1.40;59.90;;;-2.88;44.11;95720.09;5071639;28;20227;-83
2022/03/02 02:00:26;;;;;;;14.88;7.45;;;-1.40;59.90;;;-2.96;44.35;95707.69;5071949;28;20278;-82
2022/03/02 02:02:54;;;;;;;13.18;7.13;;;-1.40;60.00;;;-2.92;44.77;95709.16;5087194;28;20586;-83
2022/03/02 02:05:22;;;;;;;12.20;6.75;;;-1.40;60.00;;;-2.94;44.71;95718.69;5088263;28;20205;-82
2022/03/02 02:07:50;;;;;;;12.48;7.25;;;-1.40;60.10;;;-2.99;44.34;95701.91;5054953;28;20299;-82
2022/03/02 02:10:17;;;;;;;10.93;6.68;;;-1.40;60.10;;;-2.99;44.14;95707.03;5088181;28;20187;-82
2022/03/02 02:12:44;;;;;;;14.48;7.15;;;-1.50;60.00;;;-3.03;44.35;95708.13;5086542;28;20706;-82
2022/03/02 02:15:12;;;;;;;12.20;6.75;;;-1.50;60.00;;;-3.09;44.23;95710.16;5054097;28;20245;-83
2022/03/02 02:17:41;;;;;;;11.63;7.05;;;-1.50;60.00;;;-3.13;44.25;95695.81;5070927;28;20221;-83
2022/03/02 02:20:10;;;;;;;12.38;6.43;;;-1.50;60.10;;;-3.16;44.77;95696.00;5071347;28;20248;-84
2022/03/02 02:22:43;;;;;;;13.45;7.90;;;-1.60;60.10;;;-3.23;44.61;95685.25;5087540;28;20199;-82
2022/03/02 02:25:12;;;;;;;13.07;7.55;;;-1.60;60.50;;;-3.25;44.47;95689.69;5087883;28;20222;-83
2022/03/02 02:27:47;;;;;;;13.43;7.13;;;-1.60;60.20;;;-3.20;44.63;95694.53;5057733;28;20253;-83
2022/03/02 02:30:16;;;;;;;15.05;7.78;;;-1.60;60.50;;;-3.23;44.88;95695.53;5057412;28;20208;-83
2022/03/02 02:32:43;;;;;;;11.73;7.55;;;-1.70;60.40;;;-3.24;44.88;95696.44;5041172;28;20221;-82
2022/03/02 02:35:11;;;;;;;12.18;7.40;;;-1.70;60.30;;;-3.26;44.82;95697.44;5056871;28;20223;-83
2022/03/02 02:37:38;;;;;;;10.60;6.63;;;-1.70;60.40;;;-3.29;44.87;95698.44;5056973;28;20199;-83
2022/03/02 02:40:14;;;;;;;12.50;7.25;;;-1.70;60.40;;;-3.30;44.83;95707.03;5074178;28;20294;-83
2022/03/02 02:42:44;;;;;;;16.70;8.40;;;-1.70;60.70;;;-3.33;45.02;95707.25;5073681;28;20229;-82
2022/03/02 02:45:20;;;;;;;12.60;7.32;;;-1.80;60.40;;;-3.33;45.01;95706.38;5057942;28;20230;-82
2022/03/02 02:47:50;;;;;;;12.00;7.28;;;-1.80;60.80;;;-3.30;45.32;95713.94;5040449;28;20223;-83
2022/03/02 02:50:22;;;;;;;14.60;7.55;;;-1.80;60.50;;;-3.26;45.64;95707.69;5073949;28;20235;-83
2022/03/02 02:52:51;;;;;;;13.70;7.97;;;-1.80;60.80;;;-3.21;45.38;95703.13;5073221;28;20249;-82
2022/03/02 02:55:20;;;;;;;13.93;7.50;;;-1.80;60.70;;;-3.14;45.33;95703.63;5053760;28;20739;-82
2022/03/02 02:57:49;;;;;;;14.02;7.75;;;-1.80;60.70;;;-3.15;45.13;95701.97;5057259;28;20231;-84
2022/03/02 03:00:18;;;;;;;11.93;7.32;;;-1.70;60.70;;;-3.08;44.80;95705.81;5056963;28;20191;-82
2022/03/02 03:02:49;;;;;;;13.13;7.95;;;-1.70;60.80;;;-3.19;45.11;95685.91;5057115;28;20710;-83
2022/03/02 03:05:20;;;;;;;14.82;7.70;;;-1.70;60.80;;;-3.05;45.39;95710.78;5068988;28;20560;-82
2022/03/02 03:07:48;;;;;;;16.00;8.30;;;-1.70;60.70;;;-3.01;45.40;95711.44;5039802;28;20188;-82
2022/03/02 03:10:17;;;;;;;15.52;8.07;;;-1.60;60.80;;;-2.99;45.47;95704.47;5053610;28;20202;-83
2022/03/02 03:12:46;;;;;;;11.38;7.25;;;-1.60;60.90;;;-2.94;45.19;95712.72;5036735;28;20228;-82
2022/03/02 03:15:17;;;;;;;14.30;8.15;;;-1.60;60.80;;;-2.96;45.15;95706.88;5054573;28;20302;-82
2022/03/02 03:17:46;;;;;;;15.07;8.23;;;-1.50;60.90;;;-2.98;45.19;95703.56;5073358;28;20252;-83
2022/03/02 03:20:17;;;;;;;14.02;7.65;;;-1.60;60.60;;;-3.02;45.10;95696.97;5072939;28;20278;-83
2022/03/02 03:22:45;;;;;;;13.07;7.60;;;-1.60;60.60;;;-3.02;45.08;95707.22;5056842;28;20210;-82
2022/03/02 03:25:13;;;;;;;13.18;8.05;;;-1.60;60.60;;;-3.05;44.96;95703.09;5073375;28;20222;-83
2022/03/02 03:27:42;;;;;;;15.82;9.07;;;-1.60;60.60;;;-3.05;45.57;95708.22;5055864;28;20230;-83
2022/03/02 03:30:11;;;;;;;15.13;8.52;;;-1.60;60.60;;;-3.02;45.24;95694.41;5056545;28;20191;-82
2022/03/02 03:32:39;;;;;;;15.15;9.02;;;-1.60;60.70;;;-3.06;45.46;95689.41;5056584;28;20199;-83
2022/03/02 03:35:09;;;;;;;13.52;8.60;;;-1.60;60.70;;;-3.01;45.16;95689.16;5056259;28;20223;-82
2022/03/02 03:37:36;;;;;;;15.68;8.82;;;-1.60;60.70;;;-2.98;45.21;95694.13;5038383;28;20217;-83
2022/03/02 03:40:06;;;;;;;17.42;8.95;;;-1.60;60.70;;;-2.99;45.36;95696.75;5056358;28;20221;-83
2022/03/02 03:42:33;;;;;;;18.13;9.82;;;-1.50;60.70;;;-2.98;45.45;95693.28;5056573;28;20649;-82
2022/03/02 03:45:01;;;;;;;17.33;9.55;;;-1.50;60.70;;;-2.98;45.59;95683.03;5055970;28;20207;-82
2022/03/02 03:47:28;;;;;;;19.05;9.77;;;-1.50;60.80;;;-2.95;45.44;95688.81;5051117;28;20196;-83
2022/03/02 03:49:55;;;;;;;17.38;9.05;;;-1.50;60.80;;;-2.95;45.49;95681.09;5069573;28;20234;-83
2022/03/02 03:52:22;;;;;;;13.43;8.65;;;-1.50;60.80;;;-3.00;45.20;95674.56;5053141;28;20200;-82
2022/03/02 03:54:49;;;;;;;13.60;8.43;;;-1.50;60.70;;;-3.04;45.41;95671.38;5054444;28;20234;-83
2022/03/02 03:57:17;;;;;;;15.75;9.50;;;-1.50;60.70;;;-3.07;45.12;95669.81;5036713;28;20195;-83
2022/03/02 03:59:44;;;;;;;15.38;8.50;;;-1.60;60.60;;;-3.13;44.89;95664.22;5055113;28;20213;-82
2022/03/02 04:02:11;;;;;;;14.00;8.65;;;-1.60;60.50;;;-3.18;45.14;95667.03;5072528;28;20217;-83
2022/03/02 04:04:39;;;;;;;16.05;8.38;;;-1.60;60.60;;;-3.23;44.99;95661.34;5038647;28;20215;-83
2022/03/02 04:07:06;;;;;;;15.20;8.50;;;-1.60;60.60;;;-3.31;45.12;95655.84;5072613;28;20196;-83
2022/03/02 04:09:33;;;;;;;16.05;9.05;;;-1.70;60.60;;;-3.31;45.12;95661.78;5039526;28;20223;-83
2022/03/02 04:12:01;;;;;;;16.40;9.30;;;-1.70;60.70;;;-3.34;45.24;95659.41;5056026;28;20665;-84
2022/03/02 04:14:28;;;;;;;15.30;8.95;;;-1.80;60.60;;;-3.42;45.00;95648.75;5037936;28;20314;-82
2022/03/02 04:16:56;;;;;;;16.00;8.30;;;-1.80;60.60;;;-3.44;45.19;95656.53;5055826;28;20334;-83
2022/03/02 04:19:23;;;;;;;16.77;8.80;;;-1.80;60.60;;;-3.54;45.45;95648.56;5055565;28;20211;-83
2022/03/02 04:21:50;;;;;;;17.10;9.27;;;-1.80;60.60;;;-3.54;45.51;95656.25;5039194;28;20210;-82
2022/03/02 04:24:17;;;;;;;16.85;8.82;;;-1.90;60.70;;;-3.54;45.20;95655.41;5051373;28;20219;-83
2022/03/02 04:26:44;;;;;;;15.93;9.25;;;-1.90;60.70;;;-3.58;45.45;95647.06;5055632;28;20184;-82
2022/03/02 04:29:11;;;;;;;14.30;8.50;;;-2.00;60.70;;;-3.60;45.49;95650.63;5055479;28;20219;-82
2022/03/02 04:31:38;;;;;;;15.15;8.73;;;-2.00;60.70;;;-3.64;45.36;95652.53;5054565;28;20285;-83
2022/03/02 04:34:05;;;;;;;16.67;9.15;;;-2.00;60.70;;;-3.64;45.72;95657.66;5055383;28;20280;-82
2022/03/02 04:36:33;;;;;;;14.60;9.18;;;-2.10;60.80;;;-3.62;45.91;95637.91;5038859;28;20226;-83
2022/03/02 04:39:00;;;;;;;16.55;8.90;;;-2.10;61.00;;;-3.56;45.87;95639.28;5055398;28;20203;-83
2022/03/02 04:41:27;;;;;;;14.93;8.48;;;-2.10;61.10;;;-3.51;45.69;95634.72;5038386;28;20724;-82
2022/03/02 04:43:54;;;;;;;13.70;7.88;;;-2.10;61.10;;;-3.54;45.81;95630.59;5055284;28;20213;-82
2022/03/02 04:46:21;;;;;;;14.07;7.90;;;-2.00;61.10;;;-3.52;45.54;95627.94;5054544;28;20252;-83
2022/03/02 04:48:48;;;;;;;15.82;8.70;;;-2.00;61.10;;;-3.57;45.51;95624.81;5054567;28;20689;-83
2022/03/02 04:51:15;;;;;;;13.10;7.90;;;-2.00;61.10;;;-3.58;45.65;95623.97;5055243;28;20661;-82
2022/03/02 04:53:43;;;;;;;13.68;7.65;;;-2.00;61.00;;;-3.65;45.43;95622.69;5038517;28;20212;-82
2022/03/02 04:56:10;;;;;;;13.05;7.85;;;-2.10;61.00;;;-3.75;45.52;95611.31;5055340;28;20575;-83
2022/03/02 04:58:37;;;;;;;12.45;7.38;;;-2.10;61.00;;;-3.75;45.51;95632.66;5055250;28;20223;-83
2022/03/02 05:01:04;;;;;;;12.55;7.18;;;-2.10;60.90;;;-3.81;45.85;95632.16;5066945;28;20646;-83
2022/03/02 05:03:32;;;;;;;14.07;7.90;;;-2.20;60.90;;;-3.89;45.41;95635.97;5035203;28;20256;-83
2022/03/02 05:05:59;;;;;;;13.15;7.93;;;-2.20;60.90;;;-3.91;45.61;95636.97;5064026;28;20198;-82
2022/03/02 05:08:26;;;;;;;13.32;8.10;;;-2.20;60.90;;;-3.95;45.71;95633.75;5071275;28;20238;-83
2022/03/02 05:10:53;;;;;;;14.13;7.97;;;-2.30;61.00;;;-3.95;46.00;95630.38;5055072;28;20231;-82
2022/03/02 05:13:20;;;;;;;16.15;8.48;;;-2.30;61.10;;;-4.00;46.12;95616.97;5054884;28;20222;-83
2022/03/02 05:15:47;;;;;;;12.82;7.32;;;-2.30;61.20;;;-3.95;46.01;95628.63;5053215;28;20224;-82
2022/03/02 05:18:14;;;;;;;15.13;8.52;;;-2.40;61.20;;;-3.97;46.02;95621.94;5071623;28;20214;-82
2022/03/02 05:20:41;;;;;;;13.18;7.70;;;-2.40;61.30;;;-4.07;45.88;95612.19;5071696;28;20195;-83
2022/03/02 05:23:08;;;;;;;13.20;7.72;;;-2.40;61.30;;;-3.96;46.02;95618.47;5054724;28;20302;-83
2022/03/02 05:25:36;;;;;;;11.88;7.28;;;-2.40;61.30;;;-4.03;45.93;95618.81;5038421;28;20207;-83
2022/03/02 05:28:03;;;;;;;14.48;7.82;;;-2.40;61.30;;;-4.02;45.68;95617.91;5054786;28;20211;-84
2022/03/02 05:30:30;;;;;;;14.40;7.68;;;-2.40;61.40;;;-4.04;45.87;95617.16;5054750;28;20200;-82
2022/03/02 05:32:57;;;;;;;9.77;6.85;;;-2.50;61.30;;;-4.07;46.03;95625.00;5054878;28;20228;-82
2022/03/02 05:35:24;;;;;;;12.48;7.03;;;-2.50;61.40;;;-4.10;46.25;95621.78;5036957;28;20226;-83
2022/03/02 05:37:52;;;;;;;11.60;7.03;;;-2.50;61.30;;;-4.13;45.79;95619.41;5071042;28;20266;-82
2022/03/02 05:40:20;;;;;;;10.82;7.03;;;-2.50;61.30;;;-4.19;45.92;95618.84;5038072;28;20231;-82
2022/03/02 05:42:53;;;;;;;13.38;7.30;;;-2.60;61.30;;;-4.23;46.08;95622.44;5038689;28;20200;-83
2022/03/02 05:45:21;;;;;;;13.85;7.60;;;-2.60;61.30;;;-4.27;45.74;95628.66;5038036;28;20199;-83
2022/03/02 05:47:48;;;;;;;12.13;7.45;;;-2.60;61.30;;;-4.29;45.96;95637.34;5036926;28;20253;-83
2022/03/02 05:50:15;;;;;;;12.00;7.75;;;-2.60;61.40;;;-4.33;45.94;95621.31;5034774;28;20193;-83
2022/03/02 05:52:42;;;;;;;14.63;8.13;;;-2.70;61.30;;;-4.33;45.76;95626.44;5051133;28;20192;-82
2022/03/02 05:55:10;;;;;;;12.80;7.68;;;-2.70;61.40;;;-4.37;45.91;95630.06;5052112;28;20204;-82
2022/03/02 05:57:38;;;;;;;13.43;7.60;;;-2.70;61.40;;;-4.37;46.18;95627.50;5038176;28;20195;-84
2022/03/02 06:00:08;;;;;;;12.77;7.60;;;-2.70;61.50;;;-4.38;46.06;95624.13;5038261;28;20223;-82
2022/03/02 06:02:36;;;;;;;24.98;7.50;;;-2.80;61.50;;;-4.56;45.92;95591.81;5057419;28;20192;-82
2022/03/02 06:05:04;;;;;;;13.15;7.85;;;-2.80;61.50;;;-4.38;45.92;95621.56;5074880;28;20257;-84
2022/03/02 06:07:31;;;;;;;11.95;7.68;;;-2.80;61.50;;;-4.36;45.98;95621.47;5049158;28;20210;-83
2022/03/02 06:09:59;;;;;;;12.77;8.00;;;-2.80;61.40;;;-4.33;46.16;95631.56;5041824;28;20211;-82
2022/03/02 06:12:26;;;;;;;15.70;7.78;;;-2.80;61.70;;;-4.31;46.08;95628.91;5057990;28;20707;-84
2022/03/02 06:14:54;;;;;;;15.90;9.02;;;-2.80;61.60;;;-4.28;45.82;95621.88;5040725;28;20230;-83
2022/03/02 06:17:21;;;;;;;16.20;8.52;;;-2.80;61.70;;;-4.22;46.61;95620.72;5041566;28;20227;-84
2022/03/02 06:19:49;;;;;;;14.98;8.15;;;-2.80;61.80;;;-4.17;46.46;95616.19;5057239;28;20219;-84
2022/03/02 06:22:17;;;;;;;11.50;7.55;;;-2.80;61.90;;;-4.11;46.22;95615.00;5058032;28;20640;-83
2022/03/02 06:24:45;;;;;;;13.32;8.13;;;-2.80;62.00;;;-4.10;46.42;95598.72;5074213;28;20211;-83
2022/03/02 06:27:12;;;;;;;15.50;9.32;;;-2.70;62.10;;;-3.89;46.63;95618.03;5074503;28;20188;-83
2022/03/02 06:29:40;;;;;;;13.35;8.02;;;-2.70;63.20;;;-3.76;46.64;95610.50;5063554;28;20230;-84
2022/03/02 06:32:08;;;;;;;12.88;8.10;;;-2.60;62.60;;;-3.67;46.65;95611.69;5057887;28;20202;-82
2022/03/02 06:34:35;;;;;;;15.63;9.02;;;-2.50;62.80;;;-3.49;46.81;95624.38;5057868;28;20253;-83
2022/03/02 06:37:03;;;;;;;25.02;9.02;;;-2.40;62.80;;;-3.41;46.48;95617.88;5074003;28;20686;-83
2022/03/02 06:39:30;;;;;;;23.58;9.02;;;-2.40;62.80;;;-3.29;46.30;95623.25;5057815;28;20286;-83
2022/03/02 06:42:29;;;;;;;17.67;8.90;;;-2.30;62.80;;;-3.22;46.27;95617.66;5041099;28;20589;-84
2022/03/02 06:45:02;;;;;;;18.25;9.57;;;-2.20;62.80;;;-3.14;46.20;95617.19;5057396;28;20238;-84
2022/03/02 06:47:38;;;;;;;18.17;9.07;;;-2.10;62.90;;;-3.12;46.39;95607.66;5040652;28;20199;-83
2022/03/02 06:50:12;;;;;;;22.80;11.13;;;-2.00;63.00;;;-2.93;46.35;95625.38;5041292;28;20216;-84
2022/03/02 06:52:42;;;;;;;22.90;11.05;;;-1.90;63.00;;;-2.84;46.29;95618.06;5040632;28;20195;-83
2022/03/02 06:55:13;;;;;;;18.83;10.88;;;-1.90;63.00;;;-2.76;46.35;95616.66;5074042;28;20192;-83
2022/03/02 06:57:41;;;;;;;20.27;10.43;;;-1.80;63.10;;;-2.65;46.58;95616.03;5057210;28;20219;-83
2022/03/02 07:00:16;;;;;;;20.50;10.25;;;-1.70;63.00;;;-2.51;46.82;95614.34;5041453;28;20191;-84
2022/03/02 07:03:02;;;;;;;25.90;11.93;;;-1.60;63.20;;;-2.38;48.22;95599.00;5057164;28;20188;-84
2022/03/02 07:05:30;;;;;;;24.73;14.02;;;-1.50;63.90;;;-2.18;49.43;95590.88;5054963;28;20215;-84
2022/03/02 07:08:03;;;;;;;22.02;13.10;;;-1.40;64.20;;;-1.87;49.81;95599.19;5040488;28;20199;-84
2022/03/02 07:10:36;;;;;;;24.40;12.70;;;-1.20;64.50;;;-1.62;49.54;95598.44;5057927;28;20298;-83
2022/03/02 07:13:06;;;;;;;22.42;12.45;;;-1.00;64.60;;;-1.38;49.19;95589.22;5039772;28;20219;-84
2022/03/02 07:15:34;;;;;;;21.15;12.65;;;-0.80;64.60;;;-1.17;49.09;95592.94;5052759;28;20254;-84
2022/03/02 07:18:03;;;;;;;23.15;12.40;;;-0.60;64.50;;;-0.98;48.52;95595.09;5052902;28;20635;-84
2022/03/02 07:20:31;;;;;;;20.45;12.00;;;-0.50;64.40;;;-0.83;48.66;95584.66;5057210;28;20199;-85
2022/03/02 07:23:00;;;;;;;22.88;12.95;;;-0.30;64.30;;;-0.70;48.73;95584.66;5054381;28;20204;-85
2022/03/02 07:25:35;;;;;;;27.02;13.93;;;-0.10;65.20;;;-0.53;48.63;95586.06;5053767;28;20303;-85
2022/03/02 07:28:03;;;;;;;27.08;15.45;;;0.10;64.30;;;-0.37;48.77;95578.91;5056872;28;20211;-85
2022/03/02 07:30:30;;;;;;;25.00;14.55;;;0.20;64.30;;;-0.25;48.61;95576.41;5071349;28;20667;-85
2022/03/02 07:33:03;;;;;;;25.95;15.50;;;0.40;64.20;;;-0.17;48.45;95571.53;5044954;28;20725;-85
2022/03/02 07:35:34;;;;;;;23.55;13.93;;;0.50;64.00;;;0.02;48.15;95576.19;5035982;28;20223;-85
2022/03/02 07:38:06;;;;;;;22.83;12.82;;;0.70;64.00;;;0.15;47.76;95569.19;5051888;28;20219;-85
2022/03/02 07:40:34;;;;;;;24.30;13.52;;;0.70;63.90;;;0.18;47.24;95555.25;5035524;28;20260;-86
2022/03/02 07:43:01;;;;;;;28.25;14.75;;;0.90;63.90;;;0.40;47.43;95575.16;5046880;28;20215;-85
2022/03/02 07:45:28;;;;;;;23.00;13.10;;;1.00;63.80;;;0.50;47.33;95565.00;5036721;28;20222;-85
2022/03/02 07:47:56;;;;;;;22.67;13.27;;;1.10;63.70;;;0.65;47.05;95578.53;5052023;28;20192;-85
2022/03/02 07:50:25;;;;;;;20.55;12.65;;;1.20;63.60;;;0.76;47.02;95575.13;5059042;28;21496;-85
2022/03/02 07:52:52;;;;;;;21.23;12.48;;;1.30;63.50;;;0.90;46.89;95572.31;5068371;28;20195;-85
2022/03/02 07:55:20;;;;;;;23.27;13.13;;;1.50;63.50;;;1.01;46.77;95573.28;5051630;28;20581;-85
2022/03/02 07:57:53;;;;;;;22.77;12.27;;;1.50;63.50;;;1.04;46.50;95553.22;5053666;28;20215;-86
2022/03/02 08:00:22;;;;;;;19.92;11.88;;;1.60;63.70;;;1.25;46.73;95576.56;5051715;28;20234;-86
2022/03/02 08:02:54;;;;;;;20.40;11.73;;;1.80;63.70;;;1.36;46.49;95564.59;5073136;28;20211;-86
2022/03/02 08:05:22;;;;;;;17.83;10.85;;;1.80;63.60;;;1.49;46.59;95573.03;5039591;28;20206;-86
2022/03/02 08:07:50;;;;;;;20.40;11.07;;;1.90;63.50;;;1.60;46.57;95573.03;5036766;28;20216;-86
2022/03/02 08:10:18;;;;;;;20.10;12.38;;;2.10;63.60;;;1.70;46.48;95572.31;5056941;28;20724;-86
2022/03/02 08:12:47;;;;;;;22.40;13.27;;;2.10;63.40;;;1.72;46.24;95560.06;5046960;28;20206;-86
2022/03/02 08:15:14;;;;;;;20.17;12.75;;;2.20;63.20;;;1.88;46.41;95570.84;5056087;28;20203;-87
2022/03/02 08:17:44;;;;;;;23.38;13.48;;;2.30;63.20;;;1.89;46.06;95551.81;5056445;28;20223;-86
2022/03/02 08:20:12;;;;;;;23.05;13.85;;;2.40;63.10;;;2.08;46.29;95563.25;5037330;28;20203;-86
2022/03/02 08:22:51;;;;;;;22.13;13.63;;;2.50;63.00;;;2.09;45.84;95541.63;5050710;28;20204;-86
2022/03/02 08:25:23;;;;;;;24.27;13.02;;;2.70;63.10;;;2.24;45.88;95553.31;5039070;28;20199;-86
2022/03/02 08:27:53;;;;;;;22.60;12.23;;;2.70;62.90;;;2.26;45.94;95545.44;5039526;28;20214;-86
2022/03/02 08:30:20;;;;;;;22.25;12.50;;;2.80;62.80;;;2.32;45.44;95525.97;5039427;28;20578;-86
2022/03/02 08:32:49;;;;;;;20.20;12.45;;;2.90;62.70;;;2.50;45.72;95545.22;5038804;28;20290;-86
2022/03/02 08:35:16;;;;;;;21.95;11.88;;;3.00;62.70;;;2.61;45.51;95548.66;5039528;28;20203;-87
2022/03/02 08:37:44;;;;;;;20.63;11.73;;;3.10;62.80;;;2.74;45.55;95545.91;5039167;28;20633;-87
2022/03/02 08:40:13;;;;;;;20.33;12.18;;;3.20;62.80;;;2.80;45.65;95535.03;5039125;28;20234;-87
2022/03/02 08:42:44;;;;;;;20.25;12.38;;;3.30;62.80;;;2.94;45.47;95539.03;5055191;28;20223;-86
2022/03/02 08:45:11;;;;;;;18.17;11.88;;;3.40;62.70;;;2.96;45.14;95514.63;5039742;28;20199;-86
2022/03/02 08:47:39;;;;;;;22.70;12.20;;;3.50;62.60;;;3.15;45.32;95528.63;5072117;28;20207;-86
2022/03/02 08:50:09;;;;;;;18.33;11.23;;;3.50;62.60;;;3.27;45.12;95525.00;5038910;28;20195;-87
2022/03/02 08:52:37;;;;;;;21.50;11.88;;;3.60;62.60;;;3.36;45.09;95520.78;5055605;28;20193;-86
2022/03/02 08:55:10;;;;;;;19.52;11.27;;;3.70;62.60;;;3.36;45.30;95511.22;5071988;28;20206;-87
2022/03/02 08:57:43;;;;;;;18.98;11.20;;;3.80;62.70;;;3.58;44.95;95521.53;5056130;28;20298;-86
2022/03/02 09:00:14;;;;;;;17.30;10.60;;;3.90;62.50;;;3.56;44.88;95494.91;5055791;28;20205;-86
2022/03/02 09:02:42;;;;;;;20.63;11.85;;;4.00;62.30;;;3.72;44.96;95510.75;5055642;28;20525;-86
2022/03/02 09:05:11;;;;;;;17.70;11.48;;;4.10;62.30;;;3.82;44.65;95510.75;5054155;28;20712;-86
2022/03/02 09:07:39;;;;;;;20.58;12.13;;;4.20;62.40;;;3.93;44.33;95512.41;5055153;28;20305;-86
2022/03/02 09:10:06;;;;;;;18.20;11.25;;;4.20;62.40;;;3.96;44.29;95507.78;5038345;28;20231;-86
2022/03/02 09:12:34;;;;;;;18.30;11.52;;;4.30;62.30;;;4.04;44.74;95498.50;5035540;28;20246;-86
2022/03/02 09:15:01;;;;;;;15.90;11.18;;;4.40;62.40;;;4.09;44.70;95499.72;5052013;28;20224;-86
2022/03/02 09:17:28;;;;;;;21.67;12.20;;;4.50;62.30;;;4.27;44.55;95512.84;5052373;28;20223;-86
2022/03/02 09:19:56;;;;;;;22.83;12.57;;;4.60;62.30;;;4.35;44.66;95508.75;5055600;28;20571;-86
2022/03/02 09:22:26;;;;;;;18.20;10.90;;;4.60;62.20;;;4.41;44.63;95503.00;5038647;28;20202;-86
2022/03/02 09:24:54;;;;;;;16.77;10.52;;;4.70;62.20;;;4.52;44.31;95505.44;5055535;28;20565;-85
2022/03/02 09:27:21;;;;;;;21.25;11.43;;;4.80;62.10;;;4.56;44.11;95498.19;5038995;28;20234;-86
2022/03/02 09:29:51;;;;;;;14.95;10.68;;;4.90;62.10;;;4.67;43.98;95503.19;5055541;28;20223;-86
2022/03/02 09:32:19;;;;;;;18.45;11.32;;;5.00;62.00;;;4.56;44.23;95475.59;5055299;28;20187;-85
2022/03/02 09:34:50;;;;;;;17.73;11.35;;;5.00;61.90;;;4.70;44.27;95492.53;5038696;28;20644;-86
2022/03/02 09:37:18;;;;;;;16.70;12.10;;;5.10;61.90;;;4.77;43.93;95504.00;5042068;28;20215;-86
2022/03/02 09:39:49;;;;;;;16.42;11.45;;;5.20;61.80;;;4.82;43.75;95506.16;5059799;28;20223;-86
2022/03/02 09:42:31;;;;;;;18.80;11.10;;;5.30;61.80;;;4.77;43.96;95485.81;5059498;28;20650;-86
2022/03/02 09:45:05;;;;;;;19.08;11.70;;;5.30;61.70;;;4.92;44.38;95491.38;5059102;28;20313;-86
2022/03/02 09:47:56;;;;;;;21.40;12.15;;;5.30;61.70;;;5.03;43.94;95494.75;5075352;28;20187;-86
2022/03/02 09:50:33;;;;;;;19.00;11.95;;;5.40;61.50;;;5.08;43.54;95488.16;5059335;28;20199;-85
2022/03/02 09:53:08;;;;;;;18.63;11.70;;;5.50;61.60;;;5.17;43.80;95498.66;5042747;28;20649;-86
2022/03/02 09:55:40;;;;;;;19.48;11.45;;;5.50;61.40;;;5.21;43.76;95490.44;5042542;28;20198;-86
2022/03/02 09:58:11;;;;;;;15.70;10.80;;;5.60;61.40;;;5.31;43.79;95485.19;5057006;28;20314;-85
2022/03/02 10:00:40;;;;;;;19.23;12.02;;;5.60;61.50;;;5.38;43.62;95488.84;5058658;28;20206;-86
2022/03/02 10:03:10;;;;;;;16.67;10.68;;;5.70;61.50;;;5.43;43.60;95488.41;5041136;28;20607;-85
2022/03/02 10:05:44;;;;;;;21.70;11.73;;;5.70;61.50;;;5.52;43.51;95484.13;5041803;28;20215;-86
2022/03/02 10:08:12;;;;;;;20.52;11.38;;;5.80;61.40;;;5.57;43.55;95474.91;5050867;28;20219;-86
2022/03/02 10:10:40;;;;;;;18.63;11.23;;;5.90;61.30;;;5.65;43.38;95470.75;5042171;28;20203;-86
2022/03/02 10:13:11;;;;;;;19.95;12.77;;;5.90;61.40;;;5.65;43.27;95455.97;5040832;28;20712;-86
2022/03/02 10:15:39;;;;;;;23.02;12.13;;;6.00;61.40;;;5.82;43.26;95466.53;5057512;28;20357;-86
2022/03/02 10:18:12;;;;;;;17.80;11.98;;;6.00;61.30;;;5.91;43.29;95465.63;5058344;28;20711;-86
2022/03/02 10:20:44;;;;;;;14.77;10.68;;;6.10;61.40;;;6.01;43.16;95468.19;5041566;28;20224;-86
2022/03/02 10:23:34;;;;;;;17.98;11.43;;;6.20;61.40;;;6.09;43.36;95460.44;5040403;28;20212;-85